createdAt,value
2022-10-31T00:02:23.557Z,9.80
2022-10-31T00:04:50.347Z,9.70
2022-10-31T00:07:17.133Z,9.80
2022-10-31T00:09:43.749Z,9.80
2022-10-31T00:12:10.395Z,9.70
2022-10-31T00:14:37.060Z,9.60
2022-10-31T00:17:03.774Z,9.60
2022-10-31T00:19:30.449Z,9.60
2022-10-31T00:21:57.045Z,9.70
2022-10-31T00:24:23.725Z,9.70
2022-10-31T00:26:50.395Z,9.70
2022-10-31T00:29:17.223Z,9.60
2022-10-31T00:31:43.866Z,9.70
2022-10-31T00:34:10.578Z,9.60
2022-10-31T00:36:37.290Z,9.70
2022-10-31T00:39:04.087Z,9.60
2022-10-31T00:41:30.780Z,9.60
2022-10-31T00:43:57.416Z,9.60
2022-10-31T00:46:24.119Z,9.60
2022-10-31T00:48:51.106Z,9.50
2022-10-31T00:51:17.821Z,9.50
2022-10-31T00:53:44.499Z,9.50
2022-10-31T00:56:11.414Z,9.40
2022-10-31T00:58:38.081Z,9.40
2022-10-31T01:01:05.131Z,9.40
2022-10-31T01:03:33.258Z,9.40
2022-10-31T01:06:01.544Z,9.30
2022-10-31T01:08:28.823Z,9.40
2022-10-31T01:11:09.441Z,9.30
2022-10-31T01:13:36.101Z,9.10
2022-10-31T01:16:03.850Z,9.10
2022-10-31T01:18:30.616Z,9.10
2022-10-31T01:21:05.176Z,9.10
2022-10-31T01:23:32.170Z,9.10
2022-10-31T01:26:03.383Z,9.10
2022-10-31T01:28:30.106Z,9.10
2022-10-31T01:30:56.804Z,9.10
2022-10-31T01:33:23.460Z,9.10
2022-10-31T01:35:50.183Z,9.10
2022-10-31T01:38:16.799Z,9.10
2022-10-31T01:40:43.536Z,9.00
2022-10-31T01:43:14.418Z,8.80
2022-10-31T01:45:42.170Z,8.80
2022-10-31T01:48:12.957Z,8.90
2022-10-31T01:50:40.085Z,8.90
2022-10-31T01:53:07.685Z,8.90
2022-10-31T01:55:35.584Z,8.90
2022-10-31T01:58:10.579Z,8.90
2022-10-31T02:00:37.515Z,9.00
2022-10-31T02:03:04.305Z,8.90
2022-10-31T02:05:33.562Z,8.90
2022-10-31T02:08:18.031Z,8.90
2022-10-31T02:10:45.205Z,8.90
2022-10-31T02:13:13.911Z,8.80
2022-10-31T02:15:41.649Z,8.60
2022-10-31T02:18:08.753Z,8.60
2022-10-31T02:20:44.101Z,8.70
2022-10-31T02:23:16.906Z,8.70
2022-10-31T02:25:58.938Z,8.70
2022-10-31T02:28:43.954Z,8.60
2022-10-31T02:31:13.901Z,8.70
2022-10-31T02:34:00.780Z,8.60
2022-10-31T02:36:39.986Z,8.60
2022-10-31T02:39:16.492Z,8.40
2022-10-31T02:41:48.204Z,8.40
2022-10-31T02:44:14.811Z,8.40
2022-10-31T02:46:50.338Z,8.40
2022-10-31T02:49:25.084Z,8.50
2022-10-31T02:51:51.806Z,8.50
2022-10-31T02:54:19.802Z,8.50
2022-10-31T02:56:47.158Z,8.50
2022-10-31T02:59:13.812Z,8.50
2022-10-31T03:01:46.211Z,8.60
2022-10-31T03:04:16.018Z,8.50
2022-10-31T03:06:46.948Z,8.50
2022-10-31T03:09:13.564Z,8.50
2022-10-31T03:11:44.876Z,8.40
2022-10-31T03:14:16.352Z,8.40
2022-10-31T03:16:49.087Z,8.40
2022-10-31T03:19:18.187Z,8.40
2022-10-31T03:21:47.038Z,8.30
2022-10-31T03:24:14.516Z,8.30
2022-10-31T03:26:47.066Z,8.30
2022-10-31T03:29:16.259Z,8.30
2022-10-31T03:31:46.311Z,8.30
2022-10-31T03:34:13.571Z,8.30
2022-10-31T03:36:41.093Z,8.30
2022-10-31T03:39:09.755Z,8.20
2022-10-31T03:41:40.093Z,8.30
2022-10-31T03:44:08.801Z,8.30
2022-10-31T03:46:35.638Z,8.30
2022-10-31T03:49:02.717Z,8.20
2022-10-31T03:51:49.807Z,8.20
2022-10-31T03:54:25.554Z,8.10
2022-10-31T03:56:54.575Z,8.10
2022-10-31T03:59:27.306Z,8.10
2022-10-31T04:01:56.475Z,8.10
2022-10-31T04:04:23.242Z,8.10
2022-10-31T04:06:50.518Z,8.00
2022-10-31T04:09:17.418Z,8.00
2022-10-31T04:11:50.544Z,8.00
2022-10-31T04:14:17.248Z,8.00
2022-10-31T04:16:44.548Z,8.00
2022-10-31T04:19:12.064Z,7.80
2022-10-31T04:21:38.733Z,7.80
2022-10-31T04:24:05.540Z,7.80
2022-10-31T04:26:32.238Z,7.80
2022-10-31T04:28:58.894Z,7.80
2022-10-31T04:31:25.537Z,7.80
2022-10-31T04:33:52.209Z,7.90
2022-10-31T04:36:18.980Z,7.90
2022-10-31T04:38:45.642Z,7.90
2022-10-31T04:41:12.307Z,7.90
2022-10-31T04:43:39.004Z,7.90
2022-10-31T04:46:05.763Z,7.90
2022-10-31T04:48:32.371Z,7.90
2022-10-31T04:50:59.853Z,7.90
2022-10-31T04:53:26.473Z,7.80
2022-10-31T04:55:53.143Z,7.80
2022-10-31T04:58:19.783Z,7.70
2022-10-31T05:00:46.579Z,7.70
2022-10-31T05:03:13.240Z,7.70
2022-10-31T05:05:39.842Z,7.70
2022-10-31T05:08:06.563Z,7.60
2022-10-31T05:10:33.480Z,7.50
2022-10-31T05:13:02.082Z,7.60
2022-10-31T05:15:29.496Z,7.60
2022-10-31T05:17:56.506Z,7.50
2022-10-31T05:20:25.156Z,7.50
2022-10-31T05:22:52.871Z,7.40
2022-10-31T05:25:20.306Z,7.40
2022-10-31T05:27:47.688Z,7.50
2022-10-31T05:30:16.062Z,7.50
2022-10-31T05:32:43.819Z,7.40
2022-10-31T05:35:11.826Z,7.50
2022-10-31T05:37:38.608Z,7.50
2022-10-31T05:40:08.324Z,7.40
2022-10-31T05:42:35.316Z,7.40
2022-10-31T05:45:02.014Z,7.40
2022-10-31T05:47:28.616Z,7.40
2022-10-31T05:49:55.350Z,7.40
2022-10-31T05:52:22.056Z,7.40
2022-10-31T05:54:48.696Z,7.30
2022-10-31T05:57:15.404Z,7.30
2022-10-31T05:59:42.094Z,7.40
2022-10-31T06:02:08.760Z,7.30
2022-10-31T06:04:35.416Z,7.40
2022-10-31T06:07:02.135Z,7.40
2022-10-31T06:09:28.822Z,7.40
2022-10-31T06:11:55.464Z,7.40
2022-10-31T06:14:22.072Z,7.40
2022-10-31T06:16:48.777Z,7.50
2022-10-31T06:19:15.462Z,7.50
2022-10-31T06:21:42.106Z,7.50
2022-10-31T06:24:08.783Z,7.50
2022-10-31T06:26:35.399Z,7.50
2022-10-31T06:29:04.166Z,7.60
2022-10-31T06:31:31.059Z,7.60
2022-10-31T06:33:57.762Z,7.60
2022-10-31T06:36:24.494Z,7.60
2022-10-31T06:38:51.163Z,7.50
2022-10-31T06:41:17.849Z,7.50
2022-10-31T06:43:47.100Z,7.60
2022-10-31T06:46:13.720Z,7.60
2022-10-31T06:48:41.547Z,7.70
2022-10-31T06:51:08.587Z,7.60
2022-10-31T06:53:35.398Z,7.50
2022-10-31T06:56:02.213Z,7.50
2022-10-31T06:58:28.835Z,7.50
2022-10-31T07:00:55.498Z,7.60
2022-10-31T07:03:22.231Z,7.70
2022-10-31T07:05:48.872Z,7.80
2022-10-31T07:08:15.577Z,7.90
2022-10-31T07:10:43.411Z,8.00
2022-10-31T07:13:14.434Z,8.10
2022-10-31T07:15:41.963Z,8.10
2022-10-31T07:18:09.458Z,8.20
2022-10-31T07:20:36.242Z,8.30
2022-10-31T07:23:03.168Z,8.30
2022-10-31T07:25:30.229Z,8.30
2022-10-31T07:27:57.292Z,8.40
2022-10-31T07:30:24.104Z,8.50
2022-10-31T07:32:51.444Z,8.50
2022-10-31T07:35:19.365Z,8.60
2022-10-31T07:37:46.086Z,8.70
2022-10-31T07:40:13.306Z,8.80
2022-10-31T07:42:41.537Z,8.90
2022-10-31T07:45:09.533Z,8.90
2022-10-31T07:47:42.799Z,9.00
2022-10-31T07:50:10.803Z,9.10
2022-10-31T07:52:37.540Z,9.20
2022-10-31T07:55:05.029Z,9.20
2022-10-31T07:57:34.567Z,9.30
2022-10-31T08:00:01.649Z,9.40
2022-10-31T08:02:28.416Z,9.50
2022-10-31T08:04:58.623Z,9.50
2022-10-31T08:07:27.977Z,9.60
2022-10-31T08:09:54.706Z,9.70
2022-10-31T08:12:21.496Z,9.90
2022-10-31T08:14:48.108Z,10.00
2022-10-31T08:17:14.813Z,10.10
2022-10-31T08:19:41.439Z,10.20
2022-10-31T08:22:08.117Z,10.30
2022-10-31T08:24:34.806Z,10.30
2022-10-31T08:27:01.487Z,10.40
2022-10-31T08:29:28.143Z,10.50
2022-10-31T08:31:54.761Z,10.60
2022-10-31T08:34:21.423Z,10.60
2022-10-31T08:36:48.033Z,10.70
2022-10-31T08:39:14.659Z,10.80
2022-10-31T08:41:41.272Z,10.90
2022-10-31T08:44:07.943Z,10.90
2022-10-31T08:46:35.397Z,11.00
2022-10-31T08:49:02.062Z,11.10
2022-10-31T08:51:28.752Z,11.20
2022-10-31T08:53:55.405Z,11.30
2022-10-31T08:56:23.361Z,11.40
2022-10-31T08:58:52.037Z,11.50
2022-10-31T09:01:18.809Z,11.60
2022-10-31T09:03:45.711Z,11.70
2022-10-31T09:06:12.480Z,11.80
2022-10-31T09:08:39.187Z,11.90
2022-10-31T09:11:07.472Z,12.00
2022-10-31T09:13:38.771Z,12.10
2022-10-31T09:16:07.863Z,12.20
2022-10-31T09:18:34.777Z,12.30
2022-10-31T09:21:01.831Z,12.40
2022-10-31T09:23:29.014Z,12.60
2022-10-31T09:25:55.759Z,12.60
2022-10-31T09:28:23.730Z,12.70
2022-10-31T09:30:51.538Z,12.80
2022-10-31T09:33:18.631Z,12.90
2022-10-31T09:35:45.340Z,13.00
2022-10-31T09:38:16.242Z,13.10
2022-10-31T09:40:42.911Z,13.20
2022-10-31T09:43:28.400Z,13.20
2022-10-31T09:45:55.001Z,13.30
2022-10-31T09:48:30.780Z,13.30
2022-10-31T09:51:17.663Z,13.40
2022-10-31T09:53:51.040Z,13.50
2022-10-31T09:56:22.070Z,13.60
2022-10-31T09:58:50.875Z,13.60
2022-10-31T10:01:36.628Z,13.80
2022-10-31T10:04:19.875Z,13.80
2022-10-31T10:06:50.508Z,13.90
2022-10-31T10:09:17.218Z,13.90
2022-10-31T10:11:43.927Z,14.10
2022-10-31T10:14:10.743Z,14.20
2022-10-31T10:16:56.383Z,14.20
2022-10-31T10:19:32.221Z,14.30
2022-10-31T10:21:58.868Z,14.30
2022-10-31T10:24:31.760Z,14.40
2022-10-31T10:27:07.616Z,14.40
2022-10-31T10:29:37.307Z,14.60
2022-10-31T10:32:09.704Z,14.60
2022-10-31T10:34:40.929Z,14.70
2022-10-31T10:37:19.012Z,14.80
2022-10-31T10:39:49.049Z,15.00
2022-10-31T10:42:35.398Z,15.20
2022-10-31T10:45:33.744Z,15.20
2022-10-31T10:48:16.068Z,15.30
2022-10-31T10:50:47.528Z,15.30
2022-10-31T10:53:22.368Z,15.40
2022-10-31T10:55:58.144Z,15.40
2022-10-31T10:58:24.881Z,15.50
2022-10-31T11:00:53.713Z,15.50
2022-10-31T11:03:20.621Z,15.60
2022-10-31T11:05:59.393Z,15.60
2022-10-31T11:08:27.868Z,15.70
2022-10-31T11:11:13.474Z,15.80
2022-10-31T11:13:41.910Z,15.90
2022-10-31T11:16:10.788Z,16.00
2022-10-31T11:18:42.993Z,16.20
2022-10-31T11:21:21.176Z,16.30
2022-10-31T11:23:47.870Z,16.40
2022-10-31T11:26:20.920Z,16.60
2022-10-31T11:29:00.632Z,16.60
2022-10-31T11:31:28.057Z,16.60
2022-10-31T11:34:17.961Z,16.60
2022-10-31T11:36:45.333Z,16.60
2022-10-31T11:39:18.434Z,16.70
2022-10-31T11:41:45.488Z,16.70
2022-10-31T11:44:21.392Z,16.80
2022-10-31T11:46:52.277Z,16.80
2022-10-31T11:49:28.883Z,16.90
2022-10-31T11:51:56.798Z,16.90
2022-10-31T11:54:30.217Z,16.90
2022-10-31T11:56:56.945Z,17.00
2022-10-31T11:59:26.626Z,17.10
2022-10-31T12:01:54.079Z,17.10
2022-10-31T12:04:25.057Z,17.20
2022-10-31T12:06:52.860Z,17.20
2022-10-31T12:09:21.971Z,17.30
2022-10-31T12:11:54.758Z,17.30
2022-10-31T12:14:40.345Z,17.50
2022-10-31T12:17:14.174Z,17.50
2022-10-31T12:19:44.043Z,17.60
2022-10-31T12:22:13.585Z,17.60
2022-10-31T12:24:43.261Z,17.60
2022-10-31T12:27:28.652Z,17.60
2022-10-31T12:29:55.226Z,17.60
2022-10-31T12:32:31.684Z,17.60
2022-10-31T12:34:58.322Z,17.60
2022-10-31T12:37:31.732Z,17.60
2022-10-31T12:40:16.916Z,17.50
2022-10-31T12:42:50.551Z,17.50
2022-10-31T12:45:17.313Z,17.50
2022-10-31T12:47:43.936Z,17.50
2022-10-31T12:50:16.738Z,17.40
2022-10-31T12:52:46.525Z,17.50
2022-10-31T12:55:22.498Z,17.50
2022-10-31T12:57:55.149Z,17.50
2022-10-31T13:00:25.227Z,17.40
2022-10-31T13:03:03.742Z,17.40
2022-10-31T13:05:32.744Z,17.40
2022-10-31T13:08:06.838Z,17.40
2022-10-31T13:10:39.226Z,17.30
2022-10-31T13:13:26.131Z,17.40
2022-10-31T13:15:55.026Z,17.30
2022-10-31T13:18:50.904Z,17.20
2022-10-31T13:21:32.326Z,17.20
2022-10-31T13:24:01.302Z,17.20
2022-10-31T13:26:48.492Z,17.10
2022-10-31T13:29:31.509Z,17.10
2022-10-31T13:32:00.547Z,17.00
2022-10-31T13:34:33.193Z,17.00
2022-10-31T13:37:12.097Z,17.00
2022-10-31T13:39:46.882Z,16.90
2022-10-31T13:42:16.721Z,16.90
2022-10-31T13:44:43.375Z,16.80
2022-10-31T13:47:29.631Z,16.80
2022-10-31T13:50:07.353Z,16.80
2022-10-31T13:52:34.043Z,16.70
2022-10-31T13:55:02.717Z,16.70
2022-10-31T13:57:35.432Z,16.70
2022-10-31T14:00:05.821Z,16.70
2022-10-31T14:02:34.021Z,16.70
2022-10-31T14:05:20.946Z,16.70
2022-10-31T14:07:47.890Z,16.70
2022-10-31T14:10:20.942Z,16.60
2022-10-31T14:12:47.944Z,16.60
2022-10-31T14:15:20.801Z,16.60
2022-10-31T14:17:55.898Z,16.60
2022-10-31T14:20:31.743Z,16.60
2022-10-31T14:25:25.105Z,16.50
2022-10-31T14:27:53.338Z,16.50
2022-10-31T14:30:23.419Z,16.50
2022-10-31T14:32:51.746Z,16.40
2022-10-31T14:35:21.368Z,16.40
2022-10-31T14:38:08.526Z,16.40
2022-10-31T14:40:41.305Z,16.30
2022-10-31T14:43:07.983Z,16.30
2022-10-31T14:45:41.503Z,16.30
2022-10-31T14:48:11.191Z,16.30
2022-10-31T14:50:44.000Z,16.20
2022-10-31T14:53:14.836Z,16.20
2022-10-31T14:55:44.530Z,16.10
2022-10-31T14:58:16.496Z,16.00
2022-10-31T15:00:44.092Z,16.00
2022-10-31T15:03:16.261Z,16.00
2022-10-31T15:06:06.264Z,15.90
2022-10-31T15:08:32.995Z,15.90
2022-10-31T15:11:03.209Z,15.90
2022-10-31T15:13:29.905Z,15.80
2022-10-31T15:15:56.891Z,15.80
2022-10-31T15:18:27.494Z,15.80
2022-10-31T15:20:56.023Z,15.80
2022-10-31T15:23:24.578Z,15.80
2022-10-31T15:25:51.607Z,15.70
2022-10-31T15:28:26.028Z,15.70
2022-10-31T15:31:00.446Z,15.60
2022-10-31T15:33:30.287Z,15.60
2022-10-31T15:36:00.274Z,15.50
2022-10-31T15:38:27.472Z,15.50
2022-10-31T15:41:19.645Z,15.40
2022-10-31T15:43:46.867Z,15.40
2022-10-31T15:46:13.524Z,15.30
2022-10-31T15:48:44.499Z,15.30
2022-10-31T15:51:11.178Z,15.20
2022-10-31T15:53:51.059Z,15.10
2022-10-31T15:56:36.016Z,15.00
2022-10-31T15:59:03.032Z,15.00
2022-10-31T16:01:31.312Z,14.90
2022-10-31T16:04:02.792Z,14.80
2022-10-31T16:06:29.795Z,14.80
2022-10-31T16:08:56.467Z,14.80
2022-10-31T16:11:35.507Z,14.80
2022-10-31T16:14:05.304Z,14.70
2022-10-31T16:16:36.451Z,14.70
2022-10-31T16:19:05.282Z,14.70
2022-10-31T16:21:34.289Z,14.60
2022-10-31T16:24:21.312Z,14.60
2022-10-31T16:26:52.415Z,14.60
2022-10-31T16:29:33.480Z,14.60
2022-10-31T16:32:00.140Z,14.50
2022-10-31T16:34:27.303Z,14.50
2022-10-31T16:36:54.088Z,14.50
2022-10-31T16:39:20.965Z,14.40
2022-10-31T16:41:49.258Z,14.30
2022-10-31T16:44:16.339Z,14.30
2022-10-31T16:46:43.118Z,14.20
2022-10-31T16:49:10.258Z,14.20
2022-10-31T16:51:37.051Z,14.10
2022-10-31T16:54:03.772Z,14.00
2022-10-31T16:56:34.332Z,14.00
2022-10-31T16:59:05.461Z,14.00
2022-10-31T17:01:32.320Z,13.90
2022-10-31T17:03:59.176Z,13.80
2022-10-31T17:06:28.412Z,13.80
2022-10-31T17:08:55.629Z,13.80
2022-10-31T17:11:24.460Z,13.80
2022-10-31T17:13:51.379Z,13.70
2022-10-31T17:16:18.073Z,13.70
2022-10-31T17:18:46.154Z,13.60
2022-10-31T17:21:21.024Z,13.60
2022-10-31T17:23:47.702Z,13.60
2022-10-31T17:26:14.487Z,13.50
2022-10-31T17:28:41.496Z,13.50
2022-10-31T17:31:15.209Z,13.50
2022-10-31T17:33:43.193Z,13.40
2022-10-31T17:36:10.036Z,13.40
2022-10-31T17:38:37.873Z,13.30
2022-10-31T17:41:11.146Z,13.30
2022-10-31T17:43:38.427Z,13.30
2022-10-31T17:46:05.477Z,13.30
2022-10-31T17:48:33.113Z,13.30
2022-10-31T17:51:00.444Z,13.30
2022-10-31T17:53:28.563Z,13.30
2022-10-31T17:55:59.685Z,13.20
2022-10-31T17:58:26.463Z,13.30
2022-10-31T18:00:53.312Z,13.20
2022-10-31T18:03:20.193Z,13.10
2022-10-31T18:05:57.103Z,13.10
2022-10-31T18:08:31.433Z,13.00
2022-10-31T18:11:01.177Z,13.00
2022-10-31T18:13:28.465Z,12.90
2022-10-31T18:15:55.173Z,12.90
2022-10-31T18:18:21.853Z,12.90
2022-10-31T18:20:48.755Z,12.90
2022-10-31T18:23:15.381Z,12.90
2022-10-31T18:25:43.461Z,12.80
2022-10-31T18:28:10.480Z,12.80
2022-10-31T18:30:41.399Z,12.70
2022-10-31T18:33:08.708Z,12.70
2022-10-31T18:35:38.639Z,12.60
2022-10-31T18:38:06.278Z,12.60
2022-10-31T18:40:34.043Z,12.50
2022-10-31T18:43:00.657Z,12.40
2022-10-31T18:45:46.419Z,12.40
2022-10-31T18:48:14.431Z,12.40
2022-10-31T18:50:41.551Z,12.30
2022-10-31T18:53:08.302Z,12.20
2022-10-31T18:55:38.574Z,12.10
2022-10-31T18:58:05.244Z,12.00
2022-10-31T19:00:31.877Z,12.00
2022-10-31T19:02:58.866Z,11.90
2022-10-31T19:05:25.733Z,11.90
2022-10-31T19:07:52.443Z,11.90
2022-10-31T19:10:19.086Z,11.90
2022-10-31T19:12:45.833Z,11.80
2022-10-31T19:15:12.499Z,11.70
2022-10-31T19:17:39.154Z,11.60
2022-10-31T19:20:06.359Z,11.60
2022-10-31T19:22:33.049Z,11.60
2022-10-31T19:24:59.740Z,11.60
2022-10-31T19:27:28.162Z,11.60
2022-10-31T19:29:54.829Z,11.60
2022-10-31T19:32:21.498Z,11.50
2022-10-31T19:34:48.354Z,11.50
2022-10-31T19:37:15.048Z,11.40
2022-10-31T19:39:44.380Z,11.30
2022-10-31T19:42:11.220Z,11.30
2022-10-31T19:44:37.880Z,11.30
2022-10-31T19:47:04.622Z,11.30
2022-10-31T19:49:31.421Z,11.30
2022-10-31T19:51:58.328Z,11.30
2022-10-31T19:54:25.003Z,11.30
2022-10-31T19:56:51.649Z,11.20
2022-10-31T19:59:18.448Z,11.20
2022-10-31T20:01:45.308Z,11.20
2022-10-31T20:04:12.011Z,11.20
2022-10-31T20:06:39.806Z,11.20
2022-10-31T20:09:08.110Z,11.10
2022-10-31T20:11:36.086Z,11.10
2022-10-31T20:14:02.789Z,11.00
2022-10-31T20:16:29.620Z,10.90
2022-10-31T20:18:56.809Z,10.90
2022-10-31T20:21:24.952Z,10.80
2022-10-31T20:23:59.460Z,10.80
2022-10-31T20:26:26.469Z,10.70
2022-10-31T20:28:54.936Z,10.70
2022-10-31T20:31:22.445Z,10.60
2022-10-31T20:33:49.653Z,10.60
2022-10-31T20:36:19.632Z,10.70
2022-10-31T20:38:46.852Z,10.70
2022-10-31T20:41:13.731Z,10.60
2022-10-31T20:43:40.348Z,10.50
2022-10-31T20:46:12.168Z,10.50
2022-10-31T20:48:39.081Z,10.40
2022-10-31T20:51:07.361Z,10.30
2022-10-31T20:53:34.356Z,10.30
2022-10-31T20:56:11.831Z,10.30
2022-10-31T20:58:39.272Z,10.20
2022-10-31T21:01:10.810Z,10.20
2022-10-31T21:03:37.582Z,10.20
2022-10-31T21:06:04.835Z,10.20
2022-10-31T21:08:32.366Z,10.20
2022-10-31T21:10:59.899Z,10.10
2022-10-31T21:13:28.479Z,10.10
2022-10-31T21:16:02.255Z,10.10
2022-10-31T21:18:29.184Z,10.10
2022-10-31T21:20:56.158Z,10.00
2022-10-31T21:23:22.977Z,9.90
2022-10-31T21:25:49.655Z,9.90
2022-10-31T21:28:16.394Z,9.80
2022-10-31T21:30:47.506Z,9.70
2022-10-31T21:33:14.258Z,9.70
2022-10-31T21:35:41.228Z,9.70
2022-10-31T21:38:07.889Z,9.70
2022-10-31T21:40:34.768Z,9.70
2022-10-31T21:43:01.708Z,9.70
2022-10-31T21:45:28.555Z,9.70
2022-10-31T21:47:55.193Z,9.60
2022-10-31T21:50:22.724Z,9.60
2022-10-31T21:52:49.447Z,9.60
2022-10-31T21:55:16.292Z,9.60
2022-10-31T21:57:42.998Z,9.50
2022-10-31T22:00:10.032Z,9.50
2022-10-31T22:02:37.270Z,9.40
2022-10-31T22:05:04.090Z,9.30
2022-10-31T22:07:31.727Z,9.40
2022-10-31T22:09:58.477Z,9.40
2022-10-31T22:12:25.183Z,9.30
2022-10-31T22:14:51.800Z,9.30
2022-10-31T22:17:18.466Z,9.30
2022-10-31T22:19:45.076Z,9.20
2022-10-31T22:22:13.052Z,9.20
2022-10-31T22:24:40.093Z,9.10
2022-10-31T22:27:06.772Z,9.00
2022-10-31T22:29:35.437Z,9.00
2022-10-31T22:32:03.017Z,9.00
2022-10-31T22:34:29.763Z,9.10
2022-10-31T22:36:56.627Z,9.00
2022-10-31T22:39:23.261Z,9.00
2022-10-31T22:41:49.931Z,9.00
2022-10-31T22:44:16.556Z,9.00
2022-10-31T22:46:43.391Z,9.00
2022-10-31T22:49:11.559Z,9.10
2022-10-31T22:51:39.247Z,9.00
2022-10-31T22:54:07.721Z,9.00
2022-10-31T22:56:34.710Z,8.90
2022-10-31T22:59:01.882Z,8.80
2022-10-31T23:01:30.325Z,8.80
2022-10-31T23:03:57.235Z,8.80
2022-10-31T23:06:26.413Z,8.70
2022-10-31T23:08:53.435Z,8.70
2022-10-31T23:11:21.988Z,8.70
2022-10-31T23:14:08.433Z,8.70
2022-10-31T23:16:35.911Z,8.70
2022-10-31T23:19:07.668Z,8.70
2022-10-31T23:21:57.378Z,8.70
2022-10-31T23:24:29.157Z,8.60
2022-10-31T23:27:06.655Z,8.60
2022-10-31T23:29:34.715Z,8.60
2022-10-31T23:32:01.629Z,8.50
2022-10-31T23:34:28.281Z,8.50
2022-10-31T23:36:55.074Z,8.40
2022-10-31T23:39:25.012Z,8.40
2022-10-31T23:41:52.131Z,8.30
2022-10-31T23:44:18.740Z,8.30
2022-10-31T23:46:45.461Z,8.20
2022-10-31T23:49:12.211Z,8.40
2022-10-31T23:51:39.345Z,8.50
2022-10-31T23:54:06.299Z,8.40
2022-10-31T23:56:33.045Z,8.40
2022-10-31T23:58:59.799Z,8.30
